Reno, NV

8:37 AM PDT on August 30, 2014 (GMT -0700)
MidTown | Change Station
CLOSE
Current Station
Personal Weather Station
Location: Reno, NV
Elevation: 4491 ft
Nearby Weather Stations
Active Advisory: Fire Weather Warning

Elev 4491 ft 39.52 °N, 119.81 °W | Updated 2 minutes ago

Partly Cloudy
Partly Cloudy
66.6 °F
Feels Like 66.6 °F
N
-
Wind Variable Wind from North

Today
High -- | Low -- °F
--% Chance of Precip.
Yesterday
High -- | Low -- °F
Precip. -- in
6:25 AM 7:33 PM
Waxing Crescent, 22% visible
Pressure 29.88 in
Visibility 10.0 miles
Clouds Few 20000 ft
Dew Point 42 °F
Humidity 39%
Rainfall 0.00 in
Snow Depth 0 in
UV 1 out of 12
Pollen 9.00 out of 12
Air Quality Not available.
Flu Activity Not available.
METAR KRNO 301455Z 00000KT 10SM FEW200 19/03 A3004 RMK AO2 SLP118 T01940033 51006

More Conditions Fewer Conditions

Pressure 29.88 in
Visibility 10.0 miles
Clouds Few 20000 ft
Dew Point 42 °F
Humidity 39%
Rainfall 0.00 in
Snow Depth 0 in
UV 1 out of 12
Pollen 9.00 out of 12
Air Quality Not available.
Flu Activity Not available.
METAR KRNO 301455Z 00000KT 10SM FEW200 19/03 A3004 RMK AO2 SLP118 T01940033 51006

More Conditions Fewer Conditions

10-Day Weather Forecast

Almanac

Astronomy

Aug. 30, 2014 Rise Set
Actual Time 6:25 AM PDT 7:33 PM PDT
Civil Twilight 5:58 AM PDT 8:00 PM PDT
Nautical Twilight 5:25 AM PDT 8:33 PM PDT
Astronomical Twilight 4:50 AM PDT 9:08 PM PDT
Moon 11:16 AM PDT 10:12 PM PDT
Length of Visible Light 14h 02m
Length of Day
13h 07m
Tomorrow will be 2m 28s shorter.
Waxing Crescent, 22% of the Moon is Illuminated
Today
Waxing Crescent
Sep 2
First Quarter
Sep 8
Full
Sep 15
Last Quarter
Sep 24
New

Today's Extremes

State Highs State Lows

Community

WunderPhotos

Upload Photos

1,748,551 photos uploaded!

WunderBlogs® & News

Nearby

Snow Depth

Station Depth Elevation
Mt. Rose Ski Area 0 in 8850 ft
Big Creek Summit 0 in 8700 ft
Sheldon 0 in 5860 ft
Lewis Peak 0 in 7400 ft
Lamance Creek 1 in 6000 ft

Earthquake Activity

City Distance Mag. Time & Date
No recent earthquake activity has been reported nearby.
Minimum magnitude displayed is 2.5.

Coastal Water Temperatures

Place Temperature
No Stations Reporting

Nearby Weather Stations